Strona główna
METAR-TAF:

METAR-TAF

Lotnisko :

Port lotniczy Mitiga

Trypolis, Libia

Szerokość geograficzna: 32-54N, Długość geograficzna: 13-17E, wysokość: 11 m

Aktualna obserwacja pogody

Raport powstał 55 minut temu, godzina 14:55 UTC
Wiatr 14 kt od wschodnio-północny wschód
Temperatura 31°C
Wilgotność 59%
Ciśnienie 1013 hPa
Widzialność: 7000 m
bezchmurnie

METAR: HLLM 161455Z 06014KT 7000 SKC 31/22 Q1013

czas: 17:50 (15:50 UTC)

Prognoza

Raport powstał 10 godziny i 50 minut temu, godzina 05:00 UTC
Prognoza ważna od 16 godzina 06 UTC do 17 godzina 06 UTC
Wiatr 10 kt od wschód
Widzialność 10 km lub więcej
Mało chmury na wysokości 2500 ft
Stopniowe zmiany
od 16 godzina 10 UTC do 16 godzina 12 UTC
Wiatr 15 kt od północno-północny wschód
Stopniowe zmiany
od 17 godzina 00 UTC do 17 godzina 02 UTC
Wiatr 10 kt od wschód

TAF: HLLM 160500Z 1606/1706 09010KT 9999 FEW025 BECMG 1610/1612 03015KT BECMG 1700/1702 10010KT

Obserwacja i prognoza pogody dla ponad 4000 lotnisk (raport METAR i TAF).

Dostępne stacje oznaczono żółtymi i czerwonymi punktami na mapie.

Najedź kursorem aby zobaczyć nazwę stacji.

Kliknij aby zobaczyć obserwacje i prognozy pogody.

Aby zmienić mapę: kliknij na zielony przycisk z czarnym krzyżykiem, aby powiększyć; na zielony przycisk z myślnikiem, aby pomniejszyć; na zielone strzałki, aby przejść do map sąsiednich.


METAR-TAF: